This is the latest recevied weather packets stored in our database for station/object CALDNA-WX. If no packets are shown the sender has not sent any weather packets the latest 10 day(s).
| Time | Temp. | Humidity | Pressure | Rain* | Wind** | Luminosity | Snow |
|---|---|---|---|---|---|---|---|
| 1777656637 | 6.67° C | 55% | 988.6 hPa | 0 mm | - | - | - |
| 1777655721 | 7.22° C | 55% | 988.6 hPa | 0 mm | - | - | - |
| 1777654847 | 7.22° C | 55% | 988.6 hPa | 0 mm | - | - | - |
| 1777653920 | 7.22° C | 57% | 987.5 hPa | 0 mm | - | - | - |
| 1777653040 | 7.22° C | 56% | 987.7 hPa | 0 mm | - | - | - |
| 1777652121 | 6.67° C | 56% | 987.6 hPa | 0 mm | - | - | - |
| 1777651251 | 6.67° C | 56% | 987.6 hPa | 0 mm | - | - | - |
| 1777650321 | 6.67° C | 58% | 987.7 hPa | 0 mm | - | - | - |
| 1777649437 | 6.67° C | 52% | 988.3 hPa | 0 mm | - | - | - |
| 1777648521 | 6.67° C | 52% | 988.3 hPa | 0 mm | - | - | - |
| 1777647648 | 6.67° C | 52% | 988.3 hPa | 0 mm | - | - | - |
| 1777646721 | 6.11° C | 61% | 987.6 hPa | 0 mm | - | - | - |
| 1777645840 | 6.11° C | 54% | 988.1 hPa | 0 mm | - | - | - |
| 1777644922 | 6.11° C | 54% | 988.1 hPa | 0 mm | - | - | - |
| 1777644051 | 6.11° C | 54% | 988.1 hPa | 0 mm | - | - | - |
| 1777643121 | 5.56° C | 62% | 987.5 hPa | 0 mm | - | - | - |
| 1777642238 | 5.56° C | 62% | 987.5 hPa | 0 mm | - | - | - |
| 1777641322 | 5° C | 62% | 987.5 hPa | 0 mm | - | - | - |
| 1777640447 | 4.44° C | 62% | 987.5 hPa | 0 mm | - | - | - |
| 1777639521 | 3.89° C | 66% | 987.2 hPa | 0 mm | - | - | - |
| 1777638639 | 3.89° C | 69% | 987.1 hPa | 0 mm | - | - | - |
| 1777637721 | 3.33° C | 69% | 987.1 hPa | 0 mm | - | - | - |
| 1777636849 | 3.33° C | 69% | 987.1 hPa | 0 mm | - | - | - |
| 1777635921 | 2.78° C | 70% | 986.4 hPa | 0 mm | - | - | - |
| 1777635038 | 2.78° C | 76% | 986.4 hPa | 0 mm | - | - | - |
* Rain latest hour (hover to see other rain measurements)
** Current wind speed in m/s (hover to see current wind gust speed)